This is the latest recevied weather packets stored in our database for station/object VA7SHG-1. If no packets are shown the sender has not sent any weather packets the latest 10 day(s).
| Time | Temp. | Humidity | Pressure | Rain* | Wind** | Luminosity | Snow |
|---|---|---|---|---|---|---|---|
| 1777176321 | 15° C | 41% | 1009.4 hPa | 0 mm | - | 0 W/m² | - |
| 1777173920 | 16.11° C | 36% | 1009.1 hPa | 0 mm | - | 2 W/m² | - |
| 1777173367 | 16.67° C | 33% | 1009.1 hPa | 0 mm | - | 6 W/m² | - |
| 1777172739 | 17.22° C | 33% | 1009 hPa | 0 mm | - | 13 W/m² | - |
| 1777171520 | 17.78° C | 31% | 1008.9 hPa | 0 mm | - | 38 W/m² | - |
| 1777168529 | 18.89° C | 29% | 1008.9 hPa | 0 mm | - | 102 W/m² | - |
| 1777167328 | 18.89° C | 28% | 1008.9 hPa | 0 mm | - | 151 W/m² | - |
| 1777164321 | 20.56° C | 19% | 1009.1 hPa | 0 mm | - | 305 W/m² | - |
| 1777163728 | 21.11° C | 15% | 1009.1 hPa | 0 mm | - | 339 W/m² | - |
| 1777157120 | 20° C | 15% | 1010.3 hPa | 0 mm | - | 689 W/m² | - |
| 1777146320 | 17.78° C | 18% | 1013 hPa | 0 mm | - | 945 W/m² | - |
| 1777130721 | 11.11° C | 43% | 1016.4 hPa | 0 mm | - | 323 W/m² | - |
| 1777128968 | 8.89° C | 47% | 1016.6 hPa | 0 mm | - | 214 W/m² | - |
| 1777127120 | 8.33° C | 52% | 1016.6 hPa | 0 mm | - | 120 W/m² | - |
| 1777125921 | 7.22° C | 56% | 1016.5 hPa | 0 mm | - | 74 W/m² | - |
| 1777123520 | 5.56° C | 64% | 1016.5 hPa | 0 mm | - | 21 W/m² | - |
| 1777121120 | 5.56° C | 73% | 1016.3 hPa | 0 mm | - | 1 W/m² | - |
| 1777119921 | 5° C | 76% | 1016.4 hPa | 0 mm | - | 0 W/m² | - |
| 1777116928 | 5.56° C | 72% | 1016.4 hPa | 0 mm | - | 0 W/m² | - |
| 1777116320 | 5° C | 73% | 1016.5 hPa | 0 mm | - | 0 W/m² | - |
| 1777113921 | 6.11° C | 74% | 1016.4 hPa | 0 mm | - | 0 W/m² | - |
| 1777111521 | 6.67° C | 71% | 1016.5 hPa | 0 mm | - | 0 W/m² | - |
| 1777110360 | 7.22° C | 67% | 1016.6 hPa | 0 mm | - | 0 W/m² | - |
| 1777108528 | 7.78° C | 65% | 1016.6 hPa | 0 mm | - | 0 W/m² | - |
| 1777107329 | 8.33° C | 64% | 1016.7 hPa | 0 mm | - | 0 W/m² | - |
* Rain latest hour (hover to see other rain measurements)
** Current wind speed in m/s (hover to see current wind gust speed)